sensor_id;sensor_type;location;lat;lon;timestamp;temperature;humidity
49218;DHT22;35045;51.194;7.268;2022-11-15T00:00:33;9.60;99.90
49218;DHT22;35045;51.194;7.268;2022-11-15T00:03:00;9.60;99.90
49218;DHT22;35045;51.194;7.268;2022-11-15T00:05:26;9.50;99.90
49218;DHT22;35045;51.194;7.268;2022-11-15T00:07:52;9.60;99.90
49218;DHT22;35045;51.194;7.268;2022-11-15T00:10:20;9.60;99.90
49218;DHT22;35045;51.194;7.268;2022-11-15T00:12:46;9.60;99.90
49218;DHT22;35045;51.194;7.268;2022-11-15T00:15:12;9.70;99.90
49218;DHT22;35045;51.194;7.268;2022-11-15T00:17:38;9.70;99.90
49218;DHT22;35045;51.194;7.268;2022-11-15T00:20:05;9.70;99.90
49218;DHT22;35045;51.194;7.268;2022-11-15T00:22:32;9.80;99.90
49218;DHT22;35045;51.194;7.268;2022-11-15T00:24:59;9.80;99.90
49218;DHT22;35045;51.194;7.268;2022-11-15T00:27:25;9.80;99.90
49218;DHT22;35045;51.194;7.268;2022-11-15T00:29:52;9.90;99.90
49218;DHT22;35045;51.194;7.268;2022-11-15T00:32:18;9.90;99.90
49218;DHT22;35045;51.194;7.268;2022-11-15T00:34:44;9.90;99.90
49218;DHT22;35045;51.194;7.268;2022-11-15T00:37:10;10.00;99.90
49218;DHT22;35045;51.194;7.268;2022-11-15T00:39:37;10.00;99.90
49218;DHT22;35045;51.194;7.268;2022-11-15T00:42:03;10.00;99.90
49218;DHT22;35045;51.194;7.268;2022-11-15T00:44:29;10.10;99.90
49218;DHT22;35045;51.194;7.268;2022-11-15T00:46:55;10.10;99.90
49218;DHT22;35045;51.194;7.268;2022-11-15T00:49:21;10.10;99.90
49218;DHT22;35045;51.194;7.268;2022-11-15T00:51:47;10.10;99.90
49218;DHT22;35045;51.194;7.268;2022-11-15T00:54:14;10.10;99.90
49218;DHT22;35045;51.194;7.268;2022-11-15T00:56:40;10.20;99.90
49218;DHT22;35045;51.194;7.268;2022-11-15T00:59:06;10.20;99.90
49218;DHT22;35045;51.194;7.268;2022-11-15T01:01:32;10.20;99.90
49218;DHT22;35045;51.194;7.268;2022-11-15T01:03:58;10.30;99.90
49218;DHT22;35045;51.194;7.268;2022-11-15T01:06:26;10.30;99.90
49218;DHT22;35045;51.194;7.268;2022-11-15T01:08:52;10.30;99.90
49218;DHT22;35045;51.194;7.268;2022-11-15T01:11:18;10.40;99.90
49218;DHT22;35045;51.194;7.268;2022-11-15T01:13:44;10.40;99.90
49218;DHT22;35045;51.194;7.268;2022-11-15T01:16:14;10.50;99.90
49218;DHT22;35045;51.194;7.268;2022-11-15T01:18:40;10.50;99.90
49218;DHT22;35045;51.194;7.268;2022-11-15T01:21:09;10.50;99.90
49218;DHT22;35045;51.194;7.268;2022-11-15T01:23:36;10.50;99.90
49218;DHT22;35045;51.194;7.268;2022-11-15T01:26:05;10.60;99.90
49218;DHT22;35045;51.194;7.268;2022-11-15T01:28:32;10.60;99.90
49218;DHT22;35045;51.194;7.268;2022-11-15T01:31:00;10.60;99.90
49218;DHT22;35045;51.194;7.268;2022-11-15T01:33:29;10.60;99.90
49218;DHT22;35045;51.194;7.268;2022-11-15T01:35:56;10.60;99.90
49218;DHT22;35045;51.194;7.268;2022-11-15T01:38:22;10.60;99.90
49218;DHT22;35045;51.194;7.268;2022-11-15T01:40:49;10.60;99.90
49218;DHT22;35045;51.194;7.268;2022-11-15T01:43:29;10.60;99.90
49218;DHT22;35045;51.194;7.268;2022-11-15T01:46:34;10.60;99.90
49218;DHT22;35045;51.194;7.268;2022-11-15T01:49:10;10.60;99.90
49218;DHT22;35045;51.194;7.268;2022-11-15T01:51:38;10.60;99.90
49218;DHT22;35045;51.194;7.268;2022-11-15T01:54:08;10.60;99.90
49218;DHT22;35045;51.194;7.268;2022-11-15T01:56:38;10.60;99.90
49218;DHT22;35045;51.194;7.268;2022-11-15T01:59:07;10.60;99.90
49218;DHT22;35045;51.194;7.268;2022-11-15T02:01:34;10.60;99.90
49218;DHT22;35045;51.194;7.268;2022-11-15T02:04:06;10.70;99.90
49218;DHT22;35045;51.194;7.268;2022-11-15T02:06:36;10.70;99.90
49218;DHT22;35045;51.194;7.268;2022-11-15T02:09:03;10.70;99.90
49218;DHT22;35045;51.194;7.268;2022-11-15T02:11:29;10.70;99.90
49218;DHT22;35045;51.194;7.268;2022-11-15T02:13:56;10.80;99.90
49218;DHT22;35045;51.194;7.268;2022-11-15T02:24:48;10.90;99.90
49218;DHT22;35045;51.194;7.268;2022-11-15T02:33:00;10.90;99.90
49218;DHT22;35045;51.194;7.268;2022-11-15T02:35:58;11.00;99.90
49218;DHT22;35045;51.194;7.268;2022-11-15T02:38:43;11.00;99.90
49218;DHT22;35045;51.194;7.268;2022-11-15T02:41:20;11.00;99.90
49218;DHT22;35045;51.194;7.268;2022-11-15T02:44:26;11.10;99.90
49218;DHT22;35045;51.194;7.268;2022-11-15T02:46:57;11.10;99.90
49218;DHT22;35045;51.194;7.268;2022-11-15T02:49:48;11.10;99.90
49218;DHT22;35045;51.194;7.268;2022-11-15T02:52:16;11.10;99.90
49218;DHT22;35045;51.194;7.268;2022-11-15T02:54:52;11.20;99.90
49218;DHT22;35045;51.194;7.268;2022-11-15T02:57:20;11.20;99.90
49218;DHT22;35045;51.194;7.268;2022-11-15T03:00:04;11.20;99.90
49218;DHT22;35045;51.194;7.268;2022-11-15T03:02:48;11.20;99.90
49218;DHT22;35045;51.194;7.268;2022-11-15T03:05:37;11.20;99.90
49218;DHT22;35045;51.194;7.268;2022-11-15T03:08:21;11.20;99.90
49218;DHT22;35045;51.194;7.268;2022-11-15T03:13:26;11.30;99.90
49218;DHT22;35045;51.194;7.268;2022-11-15T03:15:59;11.30;99.90
49218;DHT22;35045;51.194;7.268;2022-11-15T03:18:37;11.30;99.90
49218;DHT22;35045;51.194;7.268;2022-11-15T03:21:08;11.20;99.90
49218;DHT22;35045;51.194;7.268;2022-11-15T03:23:36;11.30;99.90
49218;DHT22;35045;51.194;7.268;2022-11-15T03:26:06;11.30;99.90
49218;DHT22;35045;51.194;7.268;2022-11-15T03:28:39;11.20;99.90
49218;DHT22;35045;51.194;7.268;2022-11-15T03:31:07;11.30;99.90
49218;DHT22;35045;51.194;7.268;2022-11-15T03:33:55;11.20;99.90
49218;DHT22;35045;51.194;7.268;2022-11-15T03:36:24;11.30;99.90
49218;DHT22;35045;51.194;7.268;2022-11-15T03:38:56;11.20;99.90
49218;DHT22;35045;51.194;7.268;2022-11-15T03:44:41;11.30;99.90
49218;DHT22;35045;51.194;7.268;2022-11-15T03:47:17;11.30;99.90
49218;DHT22;35045;51.194;7.268;2022-11-15T03:49:50;11.30;99.90
49218;DHT22;35045;51.194;7.268;2022-11-15T03:52:19;11.30;99.90
49218;DHT22;35045;51.194;7.268;2022-11-15T03:54:56;11.30;99.90
49218;DHT22;35045;51.194;7.268;2022-11-15T03:57:22;11.30;99.90
49218;DHT22;35045;51.194;7.268;2022-11-15T03:59:48;11.30;99.90
49218;DHT22;35045;51.194;7.268;2022-11-15T04:02:14;11.40;99.90
49218;DHT22;35045;51.194;7.268;2022-11-15T04:04:40;11.40;99.90
49218;DHT22;35045;51.194;7.268;2022-11-15T04:07:06;11.40;99.90
49218;DHT22;35045;51.194;7.268;2022-11-15T04:09:33;11.40;99.90
49218;DHT22;35045;51.194;7.268;2022-11-15T04:11:59;11.40;99.90
49218;DHT22;35045;51.194;7.268;2022-11-15T04:14:25;11.50;99.90
49218;DHT22;35045;51.194;7.268;2022-11-15T04:16:51;11.50;99.90
49218;DHT22;35045;51.194;7.268;2022-11-15T04:19:17;11.40;99.90
49218;DHT22;35045;51.194;7.268;2022-11-15T04:22:02;11.40;99.90
49218;DHT22;35045;51.194;7.268;2022-11-15T04:24:47;11.40;99.90
49218;DHT22;35045;51.194;7.268;2022-11-15T04:27:13;11.40;99.90
49218;DHT22;35045;51.194;7.268;2022-11-15T04:29:39;11.40;99.90
49218;DHT22;35045;51.194;7.268;2022-11-15T04:32:06;11.40;99.90
49218;DHT22;35045;51.194;7.268;2022-11-15T04:34:33;11.40;99.90
49218;DHT22;35045;51.194;7.268;2022-11-15T04:36:59;11.40;99.90
49218;DHT22;35045;51.194;7.268;2022-11-15T04:39:38;11.40;99.90
49218;DHT22;35045;51.194;7.268;2022-11-15T04:42:04;11.40;99.90
49218;DHT22;35045;51.194;7.268;2022-11-15T04:44:30;11.50;99.90
49218;DHT22;35045;51.194;7.268;2022-11-15T04:46:57;11.50;99.90
49218;DHT22;35045;51.194;7.268;2022-11-15T04:49:23;11.50;99.90
49218;DHT22;35045;51.194;7.268;2022-11-15T04:51:49;11.50;99.90
49218;DHT22;35045;51.194;7.268;2022-11-15T04:54:15;11.50;99.90
49218;DHT22;35045;51.194;7.268;2022-11-15T04:56:41;11.50;99.90
49218;DHT22;35045;51.194;7.268;2022-11-15T04:59:08;11.50;99.90
49218;DHT22;35045;51.194;7.268;2022-11-15T05:01:34;11.50;99.90
49218;DHT22;35045;51.194;7.268;2022-11-15T05:04:00;11.50;99.90
49218;DHT22;35045;51.194;7.268;2022-11-15T05:06:49;11.50;99.90
49218;DHT22;35045;51.194;7.268;2022-11-15T05:09:17;11.50;99.90
49218;DHT22;35045;51.194;7.268;2022-11-15T05:11:43;11.50;99.90
49218;DHT22;35045;51.194;7.268;2022-11-15T05:14:09;11.50;99.90
49218;DHT22;35045;51.194;7.268;2022-11-15T05:16:36;11.50;99.90
49218;DHT22;35045;51.194;7.268;2022-11-15T05:19:03;11.50;99.90
49218;DHT22;35045;51.194;7.268;2022-11-15T05:21:30;11.50;99.90
49218;DHT22;35045;51.194;7.268;2022-11-15T05:23:56;11.50;99.90
49218;DHT22;35045;51.194;7.268;2022-11-15T05:26:22;11.50;99.90
49218;DHT22;35045;51.194;7.268;2022-11-15T05:28:56;11.50;99.90
49218;DHT22;35045;51.194;7.268;2022-11-15T05:31:23;11.50;99.90
49218;DHT22;35045;51.194;7.268;2022-11-15T05:33:50;11.60;99.90
49218;DHT22;35045;51.194;7.268;2022-11-15T05:36:27;11.60;99.90
49218;DHT22;35045;51.194;7.268;2022-11-15T05:38:54;11.60;99.90
49218;DHT22;35045;51.194;7.268;2022-11-15T05:41:24;11.50;99.90
49218;DHT22;35045;51.194;7.268;2022-11-15T05:43:52;11.50;99.90
49218;DHT22;35045;51.194;7.268;2022-11-15T05:46:19;11.50;99.90
49218;DHT22;35045;51.194;7.268;2022-11-15T05:48:48;11.50;99.90
49218;DHT22;35045;51.194;7.268;2022-11-15T05:51:17;11.50;99.90
49218;DHT22;35045;51.194;7.268;2022-11-15T05:53:45;11.50;99.90
49218;DHT22;35045;51.194;7.268;2022-11-15T05:56:13;11.50;99.90
49218;DHT22;35045;51.194;7.268;2022-11-15T05:58:40;11.50;99.90
49218;DHT22;35045;51.194;7.268;2022-11-15T06:01:06;11.50;99.90
49218;DHT22;35045;51.194;7.268;2022-11-15T06:03:33;11.40;99.90
49218;DHT22;35045;51.194;7.268;2022-11-15T06:05:59;11.40;99.90
49218;DHT22;35045;51.194;7.268;2022-11-15T06:08:25;11.40;99.90
49218;DHT22;35045;51.194;7.268;2022-11-15T06:10:51;11.40;99.90
49218;DHT22;35045;51.194;7.268;2022-11-15T06:13:17;11.40;99.90
49218;DHT22;35045;51.194;7.268;2022-11-15T06:15:44;11.40;99.90
49218;DHT22;35045;51.194;7.268;2022-11-15T06:18:10;11.40;99.90
49218;DHT22;35045;51.194;7.268;2022-11-15T06:20:36;11.40;99.90
49218;DHT22;35045;51.194;7.268;2022-11-15T06:23:03;11.40;99.90
49218;DHT22;35045;51.194;7.268;2022-11-15T06:25:30;11.40;99.90
49218;DHT22;35045;51.194;7.268;2022-11-15T06:27:58;11.40;99.90
49218;DHT22;35045;51.194;7.268;2022-11-15T06:30:25;11.40;99.90
49218;DHT22;35045;51.194;7.268;2022-11-15T06:32:57;11.40;99.90
49218;DHT22;35045;51.194;7.268;2022-11-15T06:35:24;11.40;99.90
49218;DHT22;35045;51.194;7.268;2022-11-15T06:37:50;11.40;99.90
49218;DHT22;35045;51.194;7.268;2022-11-15T06:40:16;11.30;99.90
49218;DHT22;35045;51.194;7.268;2022-11-15T06:42:42;11.30;99.90
49218;DHT22;35045;51.194;7.268;2022-11-15T06:45:08;11.30;99.90
49218;DHT22;35045;51.194;7.268;2022-11-15T06:47:34;11.20;99.90
49218;DHT22;35045;51.194;7.268;2022-11-15T06:50:01;11.20;99.90
49218;DHT22;35045;51.194;7.268;2022-11-15T06:52:27;11.20;99.90
49218;DHT22;35045;51.194;7.268;2022-11-15T06:54:58;11.20;99.90
49218;DHT22;35045;51.194;7.268;2022-11-15T06:57:24;11.20;99.90
49218;DHT22;35045;51.194;7.268;2022-11-15T06:59:50;11.20;99.90
49218;DHT22;35045;51.194;7.268;2022-11-15T07:02:16;11.20;99.90
49218;DHT22;35045;51.194;7.268;2022-11-15T07:04:43;11.20;99.90
49218;DHT22;35045;51.194;7.268;2022-11-15T07:07:10;11.10;99.90
49218;DHT22;35045;51.194;7.268;2022-11-15T07:09:36;11.10;99.90
49218;DHT22;35045;51.194;7.268;2022-11-15T07:12:02;11.10;99.90
49218;DHT22;35045;51.194;7.268;2022-11-15T07:14:32;11.10;99.90
49218;DHT22;35045;51.194;7.268;2022-11-15T07:16:58;11.00;99.90
49218;DHT22;35045;51.194;7.268;2022-11-15T07:19:24;11.00;99.90
49218;DHT22;35045;51.194;7.268;2022-11-15T07:21:50;10.90;99.90
49218;DHT22;35045;51.194;7.268;2022-11-15T07:24:16;10.90;99.90
49218;DHT22;35045;51.194;7.268;2022-11-15T07:26:43;10.90;99.90
49218;DHT22;35045;51.194;7.268;2022-11-15T07:29:09;10.90;99.90
49218;DHT22;35045;51.194;7.268;2022-11-15T07:31:35;10.90;99.90
49218;DHT22;35045;51.194;7.268;2022-11-15T07:34:01;10.90;99.90
49218;DHT22;35045;51.194;7.268;2022-11-15T07:36:27;10.90;99.90
49218;DHT22;35045;51.194;7.268;2022-11-15T07:38:53;10.90;99.90
49218;DHT22;35045;51.194;7.268;2022-11-15T07:41:20;11.00;99.90
49218;DHT22;35045;51.194;7.268;2022-11-15T07:43:46;11.00;99.90
49218;DHT22;35045;51.194;7.268;2022-11-15T07:46:12;11.10;99.90
49218;DHT22;35045;51.194;7.268;2022-11-15T07:48:39;11.00;99.90
49218;DHT22;35045;51.194;7.268;2022-11-15T07:51:12;11.00;99.90
49218;DHT22;35045;51.194;7.268;2022-11-15T07:53:39;11.00;99.90
49218;DHT22;35045;51.194;7.268;2022-11-15T07:56:06;11.00;99.90
49218;DHT22;35045;51.194;7.268;2022-11-15T07:58:33;11.00;99.90
49218;DHT22;35045;51.194;7.268;2022-11-15T08:01:03;11.00;99.90
49218;DHT22;35045;51.194;7.268;2022-11-15T08:03:30;11.00;99.90
49218;DHT22;35045;51.194;7.268;2022-11-15T08:05:56;11.10;99.90
49218;DHT22;35045;51.194;7.268;2022-11-15T08:08:22;11.10;99.90
49218;DHT22;35045;51.194;7.268;2022-11-15T08:10:48;11.10;99.90
49218;DHT22;35045;51.194;7.268;2022-11-15T08:13:16;11.10;99.90
49218;DHT22;35045;51.194;7.268;2022-11-15T08:15:42;11.10;99.90
49218;DHT22;35045;51.194;7.268;2022-11-15T08:18:12;11.10;99.90
49218;DHT22;35045;51.194;7.268;2022-11-15T08:20:39;11.10;99.90
49218;DHT22;35045;51.194;7.268;2022-11-15T08:23:06;11.10;99.90
49218;DHT22;35045;51.194;7.268;2022-11-15T08:25:34;11.10;99.90
49218;DHT22;35045;51.194;7.268;2022-11-15T08:28:05;11.20;99.90
49218;DHT22;35045;51.194;7.268;2022-11-15T08:30:36;11.20;99.90
49218;DHT22;35045;51.194;7.268;2022-11-15T08:33:03;11.20;99.90
49218;DHT22;35045;51.194;7.268;2022-11-15T08:35:30;11.20;99.90
49218;DHT22;35045;51.194;7.268;2022-11-15T08:37:56;11.20;99.90
49218;DHT22;35045;51.194;7.268;2022-11-15T08:40:22;11.20;99.90
49218;DHT22;35045;51.194;7.268;2022-11-15T08:42:50;11.20;99.90
49218;DHT22;35045;51.194;7.268;2022-11-15T08:45:16;11.20;99.90
49218;DHT22;35045;51.194;7.268;2022-11-15T08:47:42;11.20;99.90
49218;DHT22;35045;51.194;7.268;2022-11-15T08:50:09;11.20;99.90
49218;DHT22;35045;51.194;7.268;2022-11-15T08:52:35;11.30;99.90
49218;DHT22;35045;51.194;7.268;2022-11-15T08:55:01;11.30;99.90
49218;DHT22;35045;51.194;7.268;2022-11-15T08:57:30;11.30;99.90
49218;DHT22;35045;51.194;7.268;2022-11-15T08:59:56;11.40;99.90
49218;DHT22;35045;51.194;7.268;2022-11-15T09:02:23;11.40;99.90
49218;DHT22;35045;51.194;7.268;2022-11-15T09:04:49;11.50;99.90
49218;DHT22;35045;51.194;7.268;2022-11-15T09:07:15;11.60;99.90
49218;DHT22;35045;51.194;7.268;2022-11-15T09:09:42;11.60;99.90
49218;DHT22;35045;51.194;7.268;2022-11-15T09:12:08;11.60;99.90
49218;DHT22;35045;51.194;7.268;2022-11-15T09:14:34;11.60;99.90
49218;DHT22;35045;51.194;7.268;2022-11-15T09:17:01;11.70;99.90
49218;DHT22;35045;51.194;7.268;2022-11-15T09:19:27;11.60;99.90
49218;DHT22;35045;51.194;7.268;2022-11-15T09:21:53;11.70;99.90
49218;DHT22;35045;51.194;7.268;2022-11-15T09:24:19;11.70;99.90
49218;DHT22;35045;51.194;7.268;2022-11-15T09:26:45;11.70;99.90
49218;DHT22;35045;51.194;7.268;2022-11-15T09:29:12;11.80;99.90
49218;DHT22;35045;51.194;7.268;2022-11-15T09:31:38;11.80;99.90
49218;DHT22;35045;51.194;7.268;2022-11-15T09:34:04;11.80;99.90
49218;DHT22;35045;51.194;7.268;2022-11-15T09:36:30;11.80;99.90
49218;DHT22;35045;51.194;7.268;2022-11-15T09:39:00;11.90;99.90
49218;DHT22;35045;51.194;7.268;2022-11-15T09:47:17;11.90;99.90
49218;DHT22;35045;51.194;7.268;2022-11-15T09:49:45;12.00;99.90
49218;DHT22;35045;51.194;7.268;2022-11-15T09:52:13;12.00;99.90
49218;DHT22;35045;51.194;7.268;2022-11-15T09:54:43;12.00;99.90
49218;DHT22;35045;51.194;7.268;2022-11-15T09:57:39;12.10;99.90
49218;DHT22;35045;51.194;7.268;2022-11-15T10:03:13;12.40;99.90
49218;DHT22;35045;51.194;7.268;2022-11-15T10:05:45;12.40;99.90
49218;DHT22;35045;51.194;7.268;2022-11-15T10:11:06;12.50;99.90
49218;DHT22;35045;51.194;7.268;2022-11-15T10:13:58;12.60;99.90
49218;DHT22;35045;51.194;7.268;2022-11-15T10:19:23;12.60;99.90
49218;DHT22;35045;51.194;7.268;2022-11-15T10:24:44;12.60;99.90
49218;DHT22;35045;51.194;7.268;2022-11-15T10:27:15;12.60;99.90
49218;DHT22;35045;51.194;7.268;2022-11-15T10:29:44;12.60;99.90
49218;DHT22;35045;51.194;7.268;2022-11-15T10:32:12;12.60;99.90
49218;DHT22;35045;51.194;7.268;2022-11-15T10:34:38;12.60;99.90
49218;DHT22;35045;51.194;7.268;2022-11-15T10:37:04;12.70;99.90
49218;DHT22;35045;51.194;7.268;2022-11-15T10:39:31;12.70;99.90
49218;DHT22;35045;51.194;7.268;2022-11-15T10:42:15;12.70;99.90
49218;DHT22;35045;51.194;7.268;2022-11-15T10:44:44;12.80;99.90
49218;DHT22;35045;51.194;7.268;2022-11-15T10:50:06;12.80;99.90
49218;DHT22;35045;51.194;7.268;2022-11-15T10:52:35;12.90;99.90
49218;DHT22;35045;51.194;7.268;2022-11-15T10:57:38;13.10;99.90
49218;DHT22;35045;51.194;7.268;2022-11-15T11:03:27;13.10;99.90
49218;DHT22;35045;51.194;7.268;2022-11-15T11:06:15;13.10;99.90
49218;DHT22;35045;51.194;7.268;2022-11-15T11:09:03;13.10;99.90
49218;DHT22;35045;51.194;7.268;2022-11-15T11:11:50;13.10;99.90
49218;DHT22;35045;51.194;7.268;2022-11-15T11:16:52;13.20;99.90
49218;DHT22;35045;51.194;7.268;2022-11-15T11:33:26;13.40;99.90
49218;DHT22;35045;51.194;7.268;2022-11-15T11:41:38;13.70;99.90
49218;DHT22;35045;51.194;7.268;2022-11-15T11:49:30;14.20;99.90
49218;DHT22;35045;51.194;7.268;2022-11-15T11:52:25;14.30;99.90
49218;DHT22;35045;51.194;7.268;2022-11-15T11:55:19;14.30;99.90
49218;DHT22;35045;51.194;7.268;2022-11-15T12:00:35;14.50;99.90
49218;DHT22;35045;51.194;7.268;2022-11-15T12:03:14;14.80;99.90
49218;DHT22;35045;51.194;7.268;2022-11-15T12:08:41;14.90;99.90
49218;DHT22;35045;51.194;7.268;2022-11-15T12:15:11;14.70;99.90
49218;DHT22;35045;51.194;7.268;2022-11-15T12:17:40;14.60;99.90
49218;DHT22;35045;51.194;7.268;2022-11-15T12:22:46;14.70;99.50
49218;DHT22;35045;51.194;7.268;2022-11-15T12:25:44;14.60;99.90
49218;DHT22;35045;51.194;7.268;2022-11-15T12:28:17;14.40;99.90
49218;DHT22;35045;51.194;7.268;2022-11-15T12:30:51;14.50;99.90
49218;DHT22;35045;51.194;7.268;2022-11-15T12:36:09;14.30;99.90
49218;DHT22;35045;51.194;7.268;2022-11-15T12:41:22;14.30;99.90
49218;DHT22;35045;51.194;7.268;2022-11-15T12:43:49;14.50;99.90
49218;DHT22;35045;51.194;7.268;2022-11-15T12:49:07;14.70;99.90
49218;DHT22;35045;51.194;7.268;2022-11-15T12:59:56;14.80;99.80
49218;DHT22;35045;51.194;7.268;2022-11-15T13:17:49;14.80;99.90
49218;DHT22;35045;51.194;7.268;2022-11-15T13:27:51;14.20;99.90
49218;DHT22;35045;51.194;7.268;2022-11-15T13:30:24;14.10;99.90
49218;DHT22;35045;51.194;7.268;2022-11-15T13:32:51;14.00;99.90
49218;DHT22;35045;51.194;7.268;2022-11-15T13:35:23;13.90;99.90
49218;DHT22;35045;51.194;7.268;2022-11-15T13:37:50;13.80;99.90
49218;DHT22;35045;51.194;7.268;2022-11-15T13:40:27;13.70;99.90
49218;DHT22;35045;51.194;7.268;2022-11-15T13:42:57;13.60;99.90
49218;DHT22;35045;51.194;7.268;2022-11-15T13:45:24;13.60;99.90
49218;DHT22;35045;51.194;7.268;2022-11-15T13:47:53;13.50;99.90
49218;DHT22;35045;51.194;7.268;2022-11-15T13:50:22;13.50;99.90
49218;DHT22;35045;51.194;7.268;2022-11-15T13:52:51;13.40;99.90
49218;DHT22;35045;51.194;7.268;2022-11-15T13:55:20;13.50;99.90
49218;DHT22;35045;51.194;7.268;2022-11-15T13:57:55;13.30;99.90
49218;DHT22;35045;51.194;7.268;2022-11-15T14:03:07;13.40;99.90
49218;DHT22;35045;51.194;7.268;2022-11-15T14:05:34;13.40;99.90
49218;DHT22;35045;51.194;7.268;2022-11-15T14:10:39;13.40;99.90
49218;DHT22;35045;51.194;7.268;2022-11-15T14:13:26;13.30;99.90
49218;DHT22;35045;51.194;7.268;2022-11-15T14:15:53;13.30;99.90
49218;DHT22;35045;51.194;7.268;2022-11-15T14:18:40;13.30;99.90
49218;DHT22;35045;51.194;7.268;2022-11-15T14:21:08;13.40;99.90
49218;DHT22;35045;51.194;7.268;2022-11-15T14:23:34;13.20;99.90
49218;DHT22;35045;51.194;7.268;2022-11-15T14:26:00;13.20;99.90
49218;DHT22;35045;51.194;7.268;2022-11-15T14:30:55;13.20;99.90
49218;DHT22;35045;51.194;7.268;2022-11-15T14:33:30;13.20;99.90
49218;DHT22;35045;51.194;7.268;2022-11-15T14:36:33;13.20;99.90
49218;DHT22;35045;51.194;7.268;2022-11-15T14:38:51;13.20;99.90
49218;DHT22;35045;51.194;7.268;2022-11-15T14:41:19;13.20;99.90
49218;DHT22;35045;51.194;7.268;2022-11-15T14:43:46;13.10;99.90
49218;DHT22;35045;51.194;7.268;2022-11-15T14:46:12;13.10;99.90
49218;DHT22;35045;51.194;7.268;2022-11-15T14:48:38;13.10;99.90
49218;DHT22;35045;51.194;7.268;2022-11-15T14:51:13;13.00;99.90
49218;DHT22;35045;51.194;7.268;2022-11-15T14:53:40;13.10;99.90
49218;DHT22;35045;51.194;7.268;2022-11-15T14:56:07;13.00;99.90
49218;DHT22;35045;51.194;7.268;2022-11-15T14:58:33;13.00;99.90
49218;DHT22;35045;51.194;7.268;2022-11-15T15:01:02;12.90;99.90
49218;DHT22;35045;51.194;7.268;2022-11-15T15:03:28;12.90;99.90
49218;DHT22;35045;51.194;7.268;2022-11-15T15:05:55;12.90;99.90
49218;DHT22;35045;51.194;7.268;2022-11-15T15:08:22;12.90;99.90
49218;DHT22;35045;51.194;7.268;2022-11-15T15:10:48;12.80;99.90
49218;DHT22;35045;51.194;7.268;2022-11-15T15:13:23;12.80;99.90
49218;DHT22;35045;51.194;7.268;2022-11-15T15:15:50;12.80;99.90
49218;DHT22;35045;51.194;7.268;2022-11-15T15:18:18;12.80;99.90
49218;DHT22;35045;51.194;7.268;2022-11-15T15:20:47;12.70;99.90
49218;DHT22;35045;51.194;7.268;2022-11-15T15:23:19;12.70;99.90
49218;DHT22;35045;51.194;7.268;2022-11-15T15:25:46;12.70;99.90
49218;DHT22;35045;51.194;7.268;2022-11-15T15:28:13;12.70;99.90
49218;DHT22;35045;51.194;7.268;2022-11-15T15:30:40;12.70;99.90
49218;DHT22;35045;51.194;7.268;2022-11-15T15:33:06;12.60;99.90
49218;DHT22;35045;51.194;7.268;2022-11-15T15:35:34;12.60;99.90
49218;DHT22;35045;51.194;7.268;2022-11-15T15:38:00;12.60;99.90
49218;DHT22;35045;51.194;7.268;2022-11-15T15:40:28;12.60;99.90
49218;DHT22;35045;51.194;7.268;2022-11-15T15:42:55;12.60;99.90
49218;DHT22;35045;51.194;7.268;2022-11-15T15:45:21;12.50;99.90
49218;DHT22;35045;51.194;7.268;2022-11-15T15:47:48;12.50;99.90
49218;DHT22;35045;51.194;7.268;2022-11-15T15:52:48;12.50;99.90
49218;DHT22;35045;51.194;7.268;2022-11-15T15:55:15;12.50;99.90
49218;DHT22;35045;51.194;7.268;2022-11-15T15:57:41;12.50;99.90
49218;DHT22;35045;51.194;7.268;2022-11-15T16:00:09;12.40;99.90
49218;DHT22;35045;51.194;7.268;2022-11-15T16:02:35;12.40;99.90
49218;DHT22;35045;51.194;7.268;2022-11-15T16:05:05;12.40;99.90
49218;DHT22;35045;51.194;7.268;2022-11-15T16:07:32;12.40;99.90
49218;DHT22;35045;51.194;7.268;2022-11-15T16:09:58;12.40;99.90
49218;DHT22;35045;51.194;7.268;2022-11-15T16:12:34;12.40;99.90
49218;DHT22;35045;51.194;7.268;2022-11-15T16:15:01;12.40;99.90
49218;DHT22;35045;51.194;7.268;2022-11-15T16:17:33;12.40;99.90
49218;DHT22;35045;51.194;7.268;2022-11-15T16:20:01;12.40;99.90
49218;DHT22;35045;51.194;7.268;2022-11-15T16:22:27;12.40;99.90
49218;DHT22;35045;51.194;7.268;2022-11-15T16:24:55;12.40;99.90
49218;DHT22;35045;51.194;7.268;2022-11-15T16:27:21;12.40;99.90
49218;DHT22;35045;51.194;7.268;2022-11-15T16:29:48;12.40;99.90
49218;DHT22;35045;51.194;7.268;2022-11-15T16:32:15;12.50;99.90
49218;DHT22;35045;51.194;7.268;2022-11-15T16:34:41;12.40;99.90
49218;DHT22;35045;51.194;7.268;2022-11-15T16:37:21;12.40;99.90
49218;DHT22;35045;51.194;7.268;2022-11-15T16:39:48;12.40;99.90
49218;DHT22;35045;51.194;7.268;2022-11-15T16:42:15;12.40;99.90
49218;DHT22;35045;51.194;7.268;2022-11-15T16:44:41;12.40;99.90
49218;DHT22;35045;51.194;7.268;2022-11-15T16:47:17;12.40;99.90
49218;DHT22;35045;51.194;7.268;2022-11-15T16:49:44;12.40;99.90
49218;DHT22;35045;51.194;7.268;2022-11-15T16:52:10;12.40;99.90
49218;DHT22;35045;51.194;7.268;2022-11-15T16:54:36;12.30;99.90
49218;DHT22;35045;51.194;7.268;2022-11-15T16:57:02;12.30;99.90
49218;DHT22;35045;51.194;7.268;2022-11-15T16:59:30;12.40;99.90
49218;DHT22;35045;51.194;7.268;2022-11-15T17:02:02;12.40;99.90
49218;DHT22;35045;51.194;7.268;2022-11-15T17:04:28;12.40;99.90
49218;DHT22;35045;51.194;7.268;2022-11-15T17:06:58;12.30;99.90
49218;DHT22;35045;51.194;7.268;2022-11-15T17:09:25;12.30;99.90
49218;DHT22;35045;51.194;7.268;2022-11-15T17:11:51;12.30;99.90
49218;DHT22;35045;51.194;7.268;2022-11-15T17:14:17;12.30;99.90
49218;DHT22;35045;51.194;7.268;2022-11-15T17:16:44;12.30;99.90
49218;DHT22;35045;51.194;7.268;2022-11-15T17:19:14;12.30;99.90
49218;DHT22;35045;51.194;7.268;2022-11-15T17:21:41;12.30;99.90
49218;DHT22;35045;51.194;7.268;2022-11-15T17:24:08;12.30;99.90
49218;DHT22;35045;51.194;7.268;2022-11-15T17:26:34;12.30;99.90
49218;DHT22;35045;51.194;7.268;2022-11-15T17:29:04;12.30;99.90
49218;DHT22;35045;51.194;7.268;2022-11-15T17:31:36;12.30;99.90
49218;DHT22;35045;51.194;7.268;2022-11-15T17:34:04;12.30;99.90
49218;DHT22;35045;51.194;7.268;2022-11-15T17:36:31;12.20;99.90
49218;DHT22;35045;51.194;7.268;2022-11-15T17:38:57;12.30;99.90
49218;DHT22;35045;51.194;7.268;2022-11-15T17:41:24;12.20;99.90
49218;DHT22;35045;51.194;7.268;2022-11-15T17:43:50;12.30;99.90
49218;DHT22;35045;51.194;7.268;2022-11-15T17:46:19;12.30;99.90
49218;DHT22;35045;51.194;7.268;2022-11-15T17:48:47;12.30;99.90
49218;DHT22;35045;51.194;7.268;2022-11-15T17:51:15;12.30;99.90
49218;DHT22;35045;51.194;7.268;2022-11-15T17:53:46;12.30;99.90
49218;DHT22;35045;51.194;7.268;2022-11-15T17:56:16;12.20;99.90
49218;DHT22;35045;51.194;7.268;2022-11-15T17:58:47;12.30;99.90
49218;DHT22;35045;51.194;7.268;2022-11-15T18:01:27;12.30;99.90